sensor_id;sensor_type;location;lat;lon;timestamp;pressure;altitude;pressure_sealevel;temperature;humidity
55538;BME280;41383;51.418;7.286;2023-02-24T00:02:12;99707.34;;;6.91;84.15
55538;BME280;41383;51.418;7.286;2023-02-24T00:04:39;99713.91;;;7.24;83.94
55538;BME280;41383;51.418;7.286;2023-02-24T00:07:06;99704.59;;;7.20;83.24
55538;BME280;41383;51.418;7.286;2023-02-24T00:09:31;99708.41;;;7.36;82.90
55538;BME280;41383;51.418;7.286;2023-02-24T00:12:05;99702.91;;;7.31;82.12
55538;BME280;41383;51.418;7.286;2023-02-24T00:14:35;99701.09;;;7.20;81.65
55538;BME280;41383;51.418;7.286;2023-02-24T00:17:01;99700.84;;;7.21;82.46
55538;BME280;41383;51.418;7.286;2023-02-24T00:19:29;99691.81;;;7.33;82.23
55538;BME280;41383;51.418;7.286;2023-02-24T00:21:58;99691.47;;;7.29;81.79
55538;BME280;41383;51.418;7.286;2023-02-24T00:24:24;99692.13;;;7.36;81.56
55538;BME280;41383;51.418;7.286;2023-02-24T00:26:54;99697.34;;;7.38;81.05
55538;BME280;41383;51.418;7.286;2023-02-24T00:29:21;99690.69;;;7.46;80.54
55538;BME280;41383;51.418;7.286;2023-02-24T00:31:56;99681.44;;;7.47;81.28
55538;BME280;41383;51.418;7.286;2023-02-24T00:34:29;99684.34;;;7.57;80.78
55538;BME280;41383;51.418;7.286;2023-02-24T00:36:54;99678.19;;;7.62;80.67
55538;BME280;41383;51.418;7.286;2023-02-24T00:39:20;99673.22;;;7.59;79.52
55538;BME280;41383;51.418;7.286;2023-02-24T00:41:52;99670.94;;;7.51;79.74
55538;BME280;41383;51.418;7.286;2023-02-24T00:44:18;99661.09;;;7.44;79.77
55538;BME280;41383;51.418;7.286;2023-02-24T00:46:44;99661.63;;;7.46;79.57
55538;BME280;41383;51.418;7.286;2023-02-24T00:49:13;99661.88;;;7.45;79.63
55538;BME280;41383;51.418;7.286;2023-02-24T00:51:42;99659.44;;;7.43;79.51
55538;BME280;41383;51.418;7.286;2023-02-24T00:54:08;99652.84;;;7.39;79.43
55538;BME280;41383;51.418;7.286;2023-02-24T00:56:34;99649.31;;;7.39;79.58
55538;BME280;41383;51.418;7.286;2023-02-24T00:59:01;99649.56;;;7.37;79.47
55538;BME280;41383;51.418;7.286;2023-02-24T01:01:29;99642.50;;;7.36;79.39
55538;BME280;41383;51.418;7.286;2023-02-24T01:03:56;99635.75;;;7.39;79.69
55538;BME280;41383;51.418;7.286;2023-02-24T01:06:24;99647.69;;;7.38;79.24
55538;BME280;41383;51.418;7.286;2023-02-24T01:08:52;99649.31;;;7.39;79.48
55538;BME280;41383;51.418;7.286;2023-02-24T01:11:26;99635.28;;;7.42;79.73
55538;BME280;41383;51.418;7.286;2023-02-24T01:14:24;99642.25;;;7.38;79.68
55538;BME280;41383;51.418;7.286;2023-02-24T01:16:51;99640.19;;;7.45;79.61
55538;BME280;41383;51.418;7.286;2023-02-24T01:19:18;99636.41;;;7.46;79.46
55538;BME280;41383;51.418;7.286;2023-02-24T01:21:44;99635.59;;;7.45;79.55
55538;BME280;41383;51.418;7.286;2023-02-24T01:24:11;99634.44;;;7.41;79.47
55538;BME280;41383;51.418;7.286;2023-02-24T01:26:37;99628.69;;;7.38;79.40
55538;BME280;41383;51.418;7.286;2023-02-24T01:29:02;99625.66;;;7.34;79.20
55538;BME280;41383;51.418;7.286;2023-02-24T01:31:34;99626.06;;;7.26;79.27
55538;BME280;41383;51.418;7.286;2023-02-24T01:33:59;99621.94;;;7.23;79.56
55538;BME280;41383;51.418;7.286;2023-02-24T01:36:31;99619.88;;;7.30;79.51
55538;BME280;41383;51.418;7.286;2023-02-24T01:38:57;99617.16;;;7.30;79.38
55538;BME280;41383;51.418;7.286;2023-02-24T01:41:23;99615.28;;;7.14;78.97
55538;BME280;41383;51.418;7.286;2023-02-24T01:44:06;99618.97;;;7.24;79.62
55538;BME280;41383;51.418;7.286;2023-02-24T01:46:36;99619.97;;;7.35;79.00
55538;BME280;41383;51.418;7.286;2023-02-24T01:49:29;99612.31;;;7.32;78.66
55538;BME280;41383;51.418;7.286;2023-02-24T01:54:34;99614.47;;;7.30;78.85
55538;BME280;41383;51.418;7.286;2023-02-24T01:57:04;99609.03;;;7.30;78.05
55538;BME280;41383;51.418;7.286;2023-02-24T01:59:30;99609.59;;;7.32;78.91
55538;BME280;41383;51.418;7.286;2023-02-24T02:01:57;99605.69;;;7.23;78.58
55538;BME280;41383;51.418;7.286;2023-02-24T02:04:36;99602.22;;;7.28;79.05
55538;BME280;41383;51.418;7.286;2023-02-24T02:07:03;99606.41;;;7.35;78.13
55538;BME280;41383;51.418;7.286;2023-02-24T02:09:29;99596.63;;;7.34;77.74
55538;BME280;41383;51.418;7.286;2023-02-24T02:11:55;99593.34;;;7.32;78.00
55538;BME280;41383;51.418;7.286;2023-02-24T02:14:24;99594.69;;;7.30;78.18
55538;BME280;41383;51.418;7.286;2023-02-24T02:19:45;99581.84;;;7.25;78.12
55538;BME280;41383;51.418;7.286;2023-02-24T02:31:44;99557.94;;;7.05;77.59
55538;BME280;41383;51.418;7.286;2023-02-24T02:40:12;99541.94;;;7.03;77.79
55538;BME280;41383;51.418;7.286;2023-02-24T02:45:26;99526.53;;;6.92;77.61
55538;BME280;41383;51.418;7.286;2023-02-24T02:48:10;99528.34;;;6.86;77.13
55538;BME280;41383;51.418;7.286;2023-02-24T02:50:41;99521.78;;;6.82;77.38
55538;BME280;41383;51.418;7.286;2023-02-24T02:56:32;99515.06;;;6.84;76.92
55538;BME280;41383;51.418;7.286;2023-02-24T02:58:58;99517.78;;;6.84;76.48
55538;BME280;41383;51.418;7.286;2023-02-24T03:01:30;99506.78;;;6.91;75.44
55538;BME280;41383;51.418;7.286;2023-02-24T03:04:02;99505.28;;;6.83;75.79
55538;BME280;41383;51.418;7.286;2023-02-24T03:06:32;99503.56;;;6.77;76.35
55538;BME280;41383;51.418;7.286;2023-02-24T03:09:03;99494.34;;;6.78;76.56
55538;BME280;41383;51.418;7.286;2023-02-24T03:11:40;99498.72;;;6.79;75.78
55538;BME280;41383;51.418;7.286;2023-02-24T03:14:09;99493.53;;;6.77;75.79
55538;BME280;41383;51.418;7.286;2023-02-24T03:16:39;99494.47;;;6.83;75.96
55538;BME280;41383;51.418;7.286;2023-02-24T03:19:07;99492.94;;;6.75;75.44
55538;BME280;41383;51.418;7.286;2023-02-24T03:21:43;99492.72;;;6.77;75.71
55538;BME280;41383;51.418;7.286;2023-02-24T03:24:10;99488.28;;;6.71;74.83
55538;BME280;41383;51.418;7.286;2023-02-24T03:26:41;99482.78;;;6.65;74.86
55538;BME280;41383;51.418;7.286;2023-02-24T03:29:12;99482.56;;;6.67;75.06
55538;BME280;41383;51.418;7.286;2023-02-24T03:31:43;99478.50;;;6.70;75.11
55538;BME280;41383;51.418;7.286;2023-02-24T03:34:35;99479.00;;;6.67;75.64
55538;BME280;41383;51.418;7.286;2023-02-24T03:37:05;99475.97;;;6.63;75.00
55538;BME280;41383;51.418;7.286;2023-02-24T03:39:31;99480.56;;;6.62;75.25
55538;BME280;41383;51.418;7.286;2023-02-24T03:42:04;99479.00;;;6.67;74.87
55538;BME280;41383;51.418;7.286;2023-02-24T03:44:31;99477.34;;;6.65;74.88
55538;BME280;41383;51.418;7.286;2023-02-24T03:46:56;99476.88;;;6.69;74.53
55538;BME280;41383;51.418;7.286;2023-02-24T03:49:22;99477.59;;;6.64;74.84
55538;BME280;41383;51.418;7.286;2023-02-24T03:54:43;99471.78;;;6.72;74.64
55538;BME280;41383;51.418;7.286;2023-02-24T03:57:39;99469.81;;;6.68;74.52
55538;BME280;41383;51.418;7.286;2023-02-24T04:00:48;99458.31;;;6.60;74.57
55538;BME280;41383;51.418;7.286;2023-02-24T04:03:26;99458.00;;;6.57;74.88
55538;BME280;41383;51.418;7.286;2023-02-24T04:08:44;99465.63;;;6.60;75.47
55538;BME280;41383;51.418;7.286;2023-02-24T04:11:17;99465.72;;;6.65;76.02
55538;BME280;41383;51.418;7.286;2023-02-24T04:13:50;99462.44;;;6.63;76.05
55538;BME280;41383;51.418;7.286;2023-02-24T04:16:33;99461.34;;;6.64;76.47
55538;BME280;41383;51.418;7.286;2023-02-24T04:19:05;99457.63;;;6.53;75.91
55538;BME280;41383;51.418;7.286;2023-02-24T04:21:32;99452.81;;;6.55;76.42
55538;BME280;41383;51.418;7.286;2023-02-24T04:24:01;99451.09;;;6.49;75.89
55538;BME280;41383;51.418;7.286;2023-02-24T04:26:31;99450.41;;;6.41;75.74
55538;BME280;41383;51.418;7.286;2023-02-24T04:28:57;99454.03;;;6.47;75.84
55538;BME280;41383;51.418;7.286;2023-02-24T04:31:24;99449.28;;;6.54;75.69
55538;BME280;41383;51.418;7.286;2023-02-24T04:33:50;99446.00;;;6.52;76.12
55538;BME280;41383;51.418;7.286;2023-02-24T04:36:18;99441.38;;;6.53;76.15
55538;BME280;41383;51.418;7.286;2023-02-24T04:38:44;99444.34;;;6.51;75.66
55538;BME280;41383;51.418;7.286;2023-02-24T04:41:10;99437.13;;;6.57;75.48
55538;BME280;41383;51.418;7.286;2023-02-24T04:43:35;99439.69;;;6.47;75.10
55538;BME280;41383;51.418;7.286;2023-02-24T04:46:01;99444.03;;;6.48;75.73
55538;BME280;41383;51.418;7.286;2023-02-24T04:48:32;99436.56;;;6.38;75.53
55538;BME280;41383;51.418;7.286;2023-02-24T04:50:59;99436.97;;;6.47;75.64
55538;BME280;41383;51.418;7.286;2023-02-24T04:53:27;99432.13;;;6.49;75.27
55538;BME280;41383;51.418;7.286;2023-02-24T04:55:52;99426.16;;;6.47;75.30
55538;BME280;41383;51.418;7.286;2023-02-24T04:58:20;99422.34;;;6.48;75.30
55538;BME280;41383;51.418;7.286;2023-02-24T05:00:48;99422.28;;;6.42;75.47
55538;BME280;41383;51.418;7.286;2023-02-24T05:03:17;99416.38;;;6.46;75.74
55538;BME280;41383;51.418;7.286;2023-02-24T05:05:54;99423.09;;;6.43;75.85
55538;BME280;41383;51.418;7.286;2023-02-24T05:08:25;99421.22;;;6.44;75.92
55538;BME280;41383;51.418;7.286;2023-02-24T05:10:51;99420.56;;;6.36;75.92
55538;BME280;41383;51.418;7.286;2023-02-24T05:13:22;99419.56;;;6.42;75.79
55538;BME280;41383;51.418;7.286;2023-02-24T05:15:52;99416.28;;;6.40;75.64
55538;BME280;41383;51.418;7.286;2023-02-24T05:18:18;99404.97;;;6.44;75.25
55538;BME280;41383;51.418;7.286;2023-02-24T05:20:51;99405.69;;;6.39;74.95
55538;BME280;41383;51.418;7.286;2023-02-24T05:23:43;99401.09;;;6.39;75.19
55538;BME280;41383;51.418;7.286;2023-02-24T05:26:14;99398.31;;;6.34;75.15
55538;BME280;41383;51.418;7.286;2023-02-24T05:28:45;99399.38;;;6.33;74.28
55538;BME280;41383;51.418;7.286;2023-02-24T05:31:21;99391.19;;;6.28;74.55
55538;BME280;41383;51.418;7.286;2023-02-24T05:33:48;99391.06;;;6.23;74.16
55538;BME280;41383;51.418;7.286;2023-02-24T05:36:18;99388.47;;;6.28;74.48
55538;BME280;41383;51.418;7.286;2023-02-24T05:38:49;99378.47;;;6.28;73.85
55538;BME280;41383;51.418;7.286;2023-02-24T05:41:20;99383.44;;;6.37;74.18
55538;BME280;41383;51.418;7.286;2023-02-24T05:43:48;99379.19;;;6.24;73.43
55538;BME280;41383;51.418;7.286;2023-02-24T05:46:21;99371.06;;;6.24;74.13
55538;BME280;41383;51.418;7.286;2023-02-24T05:48:55;99369.00;;;6.31;73.23
55538;BME280;41383;51.418;7.286;2023-02-24T05:51:25;99367.78;;;6.22;72.98
55538;BME280;41383;51.418;7.286;2023-02-24T05:53:51;99357.53;;;6.24;73.47
55538;BME280;41383;51.418;7.286;2023-02-24T05:56:23;99362.63;;;6.20;72.96
55538;BME280;41383;51.418;7.286;2023-02-24T05:58:49;99358.09;;;6.26;72.73
55538;BME280;41383;51.418;7.286;2023-02-24T06:01:26;99360.00;;;6.08;72.63
55538;BME280;41383;51.418;7.286;2023-02-24T06:03:54;99355.69;;;6.12;72.84
55538;BME280;41383;51.418;7.286;2023-02-24T06:06:19;99355.88;;;6.23;73.00
55538;BME280;41383;51.418;7.286;2023-02-24T06:08:47;99347.13;;;6.15;72.44
55538;BME280;41383;51.418;7.286;2023-02-24T06:11:17;99335.63;;;6.25;72.93
55538;BME280;41383;51.418;7.286;2023-02-24T06:13:43;99338.00;;;6.22;72.96
55538;BME280;41383;51.418;7.286;2023-02-24T06:16:16;99332.75;;;6.32;72.96
55538;BME280;41383;51.418;7.286;2023-02-24T06:18:42;99332.44;;;6.28;72.66
55538;BME280;41383;51.418;7.286;2023-02-24T06:21:09;99329.38;;;6.25;72.67
55538;BME280;41383;51.418;7.286;2023-02-24T06:23:38;99329.00;;;6.16;71.59
55538;BME280;41383;51.418;7.286;2023-02-24T06:26:04;99331.75;;;6.04;72.05
55538;BME280;41383;51.418;7.286;2023-02-24T06:28:36;99324.88;;;6.13;71.75
55538;BME280;41383;51.418;7.286;2023-02-24T06:31:03;99323.72;;;6.09;72.05
55538;BME280;41383;51.418;7.286;2023-02-24T06:33:32;99322.59;;;6.22;72.92
55538;BME280;41383;51.418;7.286;2023-02-24T06:35:59;99316.91;;;6.24;72.08
55538;BME280;41383;51.418;7.286;2023-02-24T06:38:24;99319.13;;;6.27;71.86
55538;BME280;41383;51.418;7.286;2023-02-24T06:40:50;99321.34;;;6.30;71.51
55538;BME280;41383;51.418;7.286;2023-02-24T06:43:16;99314.84;;;6.31;71.45
55538;BME280;41383;51.418;7.286;2023-02-24T06:45:41;99308.78;;;6.41;71.89
55538;BME280;41383;51.418;7.286;2023-02-24T06:48:07;99319.28;;;6.37;72.12
55538;BME280;41383;51.418;7.286;2023-02-24T06:50:33;99309.53;;;6.36;71.74
55538;BME280;41383;51.418;7.286;2023-02-24T06:52:58;99313.72;;;6.44;72.16
55538;BME280;41383;51.418;7.286;2023-02-24T06:55:25;99315.81;;;5.90;72.97
55538;BME280;41383;51.418;7.286;2023-02-24T06:57:58;99304.06;;;6.14;72.72
55538;BME280;41383;51.418;7.286;2023-02-24T07:00:30;99309.78;;;6.17;72.42
55538;BME280;41383;51.418;7.286;2023-02-24T07:03:07;99304.94;;;6.19;71.77
55538;BME280;41383;51.418;7.286;2023-02-24T07:05:50;99300.16;;;6.27;72.44
55538;BME280;41383;51.418;7.286;2023-02-24T07:08:22;99297.47;;;6.27;72.11
55538;BME280;41383;51.418;7.286;2023-02-24T07:10:55;99298.44;;;6.21;71.33
55538;BME280;41383;51.418;7.286;2023-02-24T07:13:23;99292.47;;;6.18;71.70
55538;BME280;41383;51.418;7.286;2023-02-24T07:15:49;99302.31;;;6.25;72.43
55538;BME280;41383;51.418;7.286;2023-02-24T07:18:16;99293.19;;;6.31;71.93
55538;BME280;41383;51.418;7.286;2023-02-24T07:20:42;99303.72;;;6.10;71.34
55538;BME280;41383;51.418;7.286;2023-02-24T07:23:15;99294.47;;;6.06;70.85
55538;BME280;41383;51.418;7.286;2023-02-24T07:25:41;99293.13;;;6.09;71.89
55538;BME280;41383;51.418;7.286;2023-02-24T07:28:08;99293.03;;;6.21;71.16
55538;BME280;41383;51.418;7.286;2023-02-24T07:30:36;99289.50;;;6.03;71.20
55538;BME280;41383;51.418;7.286;2023-02-24T07:33:02;99273.91;;;5.93;71.36
55538;BME280;41383;51.418;7.286;2023-02-24T07:35:29;99282.69;;;6.00;71.16
55538;BME280;41383;51.418;7.286;2023-02-24T07:37:54;99277.78;;;5.97;70.39
55538;BME280;41383;51.418;7.286;2023-02-24T07:40:25;99264.50;;;5.95;70.82
55538;BME280;41383;51.418;7.286;2023-02-24T07:42:52;99259.56;;;5.75;71.18
55538;BME280;41383;51.418;7.286;2023-02-24T07:45:18;99267.44;;;5.77;71.11
55538;BME280;41383;51.418;7.286;2023-02-24T07:47:43;99263.59;;;5.90;71.29
55538;BME280;41383;51.418;7.286;2023-02-24T07:50:09;99260.44;;;6.10;70.60
55538;BME280;41383;51.418;7.286;2023-02-24T07:52:39;99249.50;;;6.22;71.08
55538;BME280;41383;51.418;7.286;2023-02-24T07:55:06;99243.50;;;6.20;69.33
55538;BME280;41383;51.418;7.286;2023-02-24T07:57:33;99245.97;;;6.22;70.88
55538;BME280;41383;51.418;7.286;2023-02-24T08:00:04;99235.84;;;6.34;70.18
55538;BME280;41383;51.418;7.286;2023-02-24T08:02:54;99233.66;;;5.96;69.75
55538;BME280;41383;51.418;7.286;2023-02-24T08:05:19;99236.66;;;6.00;69.79
55538;BME280;41383;51.418;7.286;2023-02-24T08:07:46;99227.44;;;5.79;69.87
55538;BME280;41383;51.418;7.286;2023-02-24T08:10:15;99225.28;;;6.15;70.26
55538;BME280;41383;51.418;7.286;2023-02-24T08:12:52;99220.72;;;6.16;69.29
55538;BME280;41383;51.418;7.286;2023-02-24T08:15:25;99211.91;;;6.26;69.61
55538;BME280;41383;51.418;7.286;2023-02-24T08:17:57;99208.13;;;6.27;69.72
55538;BME280;41383;51.418;7.286;2023-02-24T08:20:24;99213.09;;;6.35;69.76
55538;BME280;41383;51.418;7.286;2023-02-24T08:22:51;99202.72;;;6.27;69.12
55538;BME280;41383;51.418;7.286;2023-02-24T08:25:20;99195.25;;;6.34;69.68
55538;BME280;41383;51.418;7.286;2023-02-24T08:27:49;99200.31;;;6.30;68.81
55538;BME280;41383;51.418;7.286;2023-02-24T08:30:20;99187.53;;;6.26;69.11
55538;BME280;41383;51.418;7.286;2023-02-24T08:32:52;99190.75;;;6.45;69.15
55538;BME280;41383;51.418;7.286;2023-02-24T08:35:27;99188.47;;;5.97;68.63
55538;BME280;41383;51.418;7.286;2023-02-24T08:37:59;99188.53;;;6.19;69.20
55538;BME280;41383;51.418;7.286;2023-02-24T08:40:28;99185.28;;;6.40;68.27
55538;BME280;41383;51.418;7.286;2023-02-24T08:43:04;99188.22;;;6.16;67.95
55538;BME280;41383;51.418;7.286;2023-02-24T08:46:02;99185.75;;;6.14;67.83
55538;BME280;41383;51.418;7.286;2023-02-24T08:48:35;99179.22;;;6.10;67.81
55538;BME280;41383;51.418;7.286;2023-02-24T08:53:54;99175.25;;;6.01;68.86
55538;BME280;41383;51.418;7.286;2023-02-24T08:56:22;99168.59;;;5.69;68.84
55538;BME280;41383;51.418;7.286;2023-02-24T08:58:51;99159.69;;;5.91;69.36
55538;BME280;41383;51.418;7.286;2023-02-24T09:01:23;99153.31;;;5.80;69.42
55538;BME280;41383;51.418;7.286;2023-02-24T09:03:54;99157.25;;;5.89;68.95
55538;BME280;41383;51.418;7.286;2023-02-24T09:06:24;99159.44;;;5.92;68.26
55538;BME280;41383;51.418;7.286;2023-02-24T09:08:54;99149.38;;;5.70;68.85
55538;BME280;41383;51.418;7.286;2023-02-24T09:11:39;99152.50;;;5.62;69.23
55538;BME280;41383;51.418;7.286;2023-02-24T09:14:11;99152.31;;;5.86;67.86
55538;BME280;41383;51.418;7.286;2023-02-24T09:16:42;99142.47;;;5.97;68.02
55538;BME280;41383;51.418;7.286;2023-02-24T09:19:29;99132.59;;;5.68;68.50
55538;BME280;41383;51.418;7.286;2023-02-24T09:22:10;99142.16;;;5.76;67.69
55538;BME280;41383;51.418;7.286;2023-02-24T09:24:54;99128.19;;;6.02;67.64
55538;BME280;41383;51.418;7.286;2023-02-24T09:27:40;99134.97;;;6.04;66.49
55538;BME280;41383;51.418;7.286;2023-02-24T09:30:11;99134.09;;;5.99;67.98
55538;BME280;41383;51.418;7.286;2023-02-24T09:32:56;99123.06;;;5.83;66.72
55538;BME280;41383;51.418;7.286;2023-02-24T09:35:28;99128.69;;;5.99;66.82
55538;BME280;41383;51.418;7.286;2023-02-24T09:38:01;99118.28;;;5.90;66.43
55538;BME280;41383;51.418;7.286;2023-02-24T09:40:31;99117.75;;;5.71;65.98
55538;BME280;41383;51.418;7.286;2023-02-24T09:43:04;99112.16;;;5.78;65.96
55538;BME280;41383;51.418;7.286;2023-02-24T09:45:36;99103.41;;;5.70;66.57
55538;BME280;41383;51.418;7.286;2023-02-24T09:48:13;99106.44;;;5.74;66.35
55538;BME280;41383;51.418;7.286;2023-02-24T09:50:45;99109.38;;;5.72;65.81
55538;BME280;41383;51.418;7.286;2023-02-24T09:53:14;99089.84;;;5.88;65.04
55538;BME280;41383;51.418;7.286;2023-02-24T09:55:47;99084.75;;;5.91;65.85
55538;BME280;41383;51.418;7.286;2023-02-24T09:58:41;99082.06;;;5.91;65.31
55538;BME280;41383;51.418;7.286;2023-02-24T10:06:44;99067.13;;;6.06;64.86
55538;BME280;41383;51.418;7.286;2023-02-24T10:12:21;99068.53;;;5.91;64.12
55538;BME280;41383;51.418;7.286;2023-02-24T10:17:50;99070.22;;;5.58;65.08
55538;BME280;41383;51.418;7.286;2023-02-24T10:20:18;99056.09;;;5.33;66.32
55538;BME280;41383;51.418;7.286;2023-02-24T10:23:23;99045.56;;;5.71;66.28
55538;BME280;41383;51.418;7.286;2023-02-24T10:26:16;99051.72;;;5.49;66.64
55538;BME280;41383;51.418;7.286;2023-02-24T10:29:10;99040.47;;;5.75;65.84
55538;BME280;41383;51.418;7.286;2023-02-24T10:31:49;99030.06;;;5.67;65.49
55538;BME280;41383;51.418;7.286;2023-02-24T10:34:23;99027.06;;;5.63;65.78
55538;BME280;41383;51.418;7.286;2023-02-24T10:37:11;99036.63;;;5.71;65.15
55538;BME280;41383;51.418;7.286;2023-02-24T10:39:36;99025.94;;;5.42;65.93
55538;BME280;41383;51.418;7.286;2023-02-24T10:42:06;99028.88;;;5.80;66.79
55538;BME280;41383;51.418;7.286;2023-02-24T10:44:43;99022.69;;;5.62;66.22
55538;BME280;41383;51.418;7.286;2023-02-24T10:47:26;99021.69;;;5.68;66.38
55538;BME280;41383;51.418;7.286;2023-02-24T10:49:57;99018.22;;;5.51;67.38
55538;BME280;41383;51.418;7.286;2023-02-24T10:52:31;99014.03;;;5.20;69.26
55538;BME280;41383;51.418;7.286;2023-02-24T10:55:05;99007.97;;;5.53;68.63
55538;BME280;41383;51.418;7.286;2023-02-24T10:57:53;99007.34;;;5.68;68.39
55538;BME280;41383;51.418;7.286;2023-02-24T11:00:46;99008.88;;;5.81;68.77
55538;BME280;41383;51.418;7.286;2023-02-24T11:03:47;98996.88;;;5.32;69.78
55538;BME280;41383;51.418;7.286;2023-02-24T11:06:27;98996.50;;;4.88;72.60
55538;BME280;41383;51.418;7.286;2023-02-24T11:09:20;98993.56;;;5.47;72.25
55538;BME280;41383;51.418;7.286;2023-02-24T11:11:52;98984.69;;;5.52;71.96
55538;BME280;41383;51.418;7.286;2023-02-24T11:14:55;98974.97;;;5.51;72.58
55538;BME280;41383;51.418;7.286;2023-02-24T11:17:54;98975.59;;;5.58;72.22
55538;BME280;41383;51.418;7.286;2023-02-24T11:23:06;98953.94;;;5.58;72.96
55538;BME280;41383;51.418;7.286;2023-02-24T11:25:36;98944.56;;;5.88;72.70
55538;BME280;41383;51.418;7.286;2023-02-24T11:28:15;98953.34;;;6.01;72.96
55538;BME280;41383;51.418;7.286;2023-02-24T11:33:45;98941.28;;;5.41;74.29
55538;BME280;41383;51.418;7.286;2023-02-24T11:39:20;98928.66;;;5.24;76.13
55538;BME280;41383;51.418;7.286;2023-02-24T11:41:57;98920.91;;;5.11;74.84
55538;BME280;41383;51.418;7.286;2023-02-24T11:44:32;98917.88;;;5.47;75.82
55538;BME280;41383;51.418;7.286;2023-02-24T11:47:06;98911.00;;;5.39;75.70
55538;BME280;41383;51.418;7.286;2023-02-24T11:49:42;98908.75;;;5.31;76.72
55538;BME280;41383;51.418;7.286;2023-02-24T11:52:14;98899.31;;;5.56;77.07
55538;BME280;41383;51.418;7.286;2023-02-24T11:54:52;98897.97;;;5.58;76.53
55538;BME280;41383;51.418;7.286;2023-02-24T11:57:22;98903.69;;;5.62;76.18
55538;BME280;41383;51.418;7.286;2023-02-24T12:00:00;98897.88;;;5.76;76.15
55538;BME280;41383;51.418;7.286;2023-02-24T12:05:13;98889.50;;;5.49;76.88
55538;BME280;41383;51.418;7.286;2023-02-24T12:07:43;98877.94;;;5.32;77.32
55538;BME280;41383;51.418;7.286;2023-02-24T12:10:22;98885.22;;;5.09;78.18
55538;BME280;41383;51.418;7.286;2023-02-24T12:12:54;98889.50;;;5.27;79.49
55538;BME280;41383;51.418;7.286;2023-02-24T12:15:26;98879.81;;;5.09;79.12
55538;BME280;41383;51.418;7.286;2023-02-24T12:20:50;98869.06;;;5.59;77.64
55538;BME280;41383;51.418;7.286;2023-02-24T12:23:40;98865.94;;;5.45;77.56
55538;BME280;41383;51.418;7.286;2023-02-24T12:51:22;98818.78;;;5.35;79.94
55538;BME280;41383;51.418;7.286;2023-02-24T12:56:20;98807.59;;;5.82;77.94
55538;BME280;41383;51.418;7.286;2023-02-24T12:58:50;98814.78;;;5.43;78.46
55538;BME280;41383;51.418;7.286;2023-02-24T13:06:24;98802.69;;;5.01;79.53
55538;BME280;41383;51.418;7.286;2023-02-24T13:09:13;98801.56;;;5.19;78.97
55538;BME280;41383;51.418;7.286;2023-02-24T13:11:48;98793.41;;;4.92;80.22
55538;BME280;41383;51.418;7.286;2023-02-24T13:19:36;98780.22;;;5.18;79.82
55538;BME280;41383;51.418;7.286;2023-02-24T13:22:06;98776.19;;;5.20;79.67
55538;BME280;41383;51.418;7.286;2023-02-24T13:24:37;98773.25;;;4.99;80.08
55538;BME280;41383;51.418;7.286;2023-02-24T13:29:44;98768.91;;;4.98;80.57
55538;BME280;41383;51.418;7.286;2023-02-24T13:32:29;98758.59;;;4.95;80.21
55538;BME280;41383;51.418;7.286;2023-02-24T13:35:02;98757.56;;;4.74;81.52
55538;BME280;41383;51.418;7.286;2023-02-24T13:37:36;98749.06;;;4.65;81.86
55538;BME280;41383;51.418;7.286;2023-02-24T13:40:31;98756.47;;;4.75;82.28
55538;BME280;41383;51.418;7.286;2023-02-24T13:42:58;98743.56;;;4.60;82.63
55538;BME280;41383;51.418;7.286;2023-02-24T13:45:29;98731.91;;;4.76;83.17
55538;BME280;41383;51.418;7.286;2023-02-24T13:48:16;98734.34;;;4.78;81.92
55538;BME280;41383;51.418;7.286;2023-02-24T14:02:38;98717.66;;;4.81;82.71
55538;BME280;41383;51.418;7.286;2023-02-24T14:05:35;98713.81;;;4.99;82.33
55538;BME280;41383;51.418;7.286;2023-02-24T14:08:03;98701.13;;;5.00;81.38
55538;BME280;41383;51.418;7.286;2023-02-24T14:10:31;98704.31;;;4.97;82.12
55538;BME280;41383;51.418;7.286;2023-02-24T14:13:02;98699.22;;;5.00;82.40
55538;BME280;41383;51.418;7.286;2023-02-24T14:15:29;98698.53;;;5.10;82.33
55538;BME280;41383;51.418;7.286;2023-02-24T14:18:03;98699.44;;;5.21;82.16
55538;BME280;41383;51.418;7.286;2023-02-24T14:20:32;98698.66;;;4.98;82.51
55538;BME280;41383;51.418;7.286;2023-02-24T14:22:58;98697.56;;;5.22;82.32
55538;BME280;41383;51.418;7.286;2023-02-24T14:25:32;98700.75;;;5.19;81.96
55538;BME280;41383;51.418;7.286;2023-02-24T14:27:58;98702.47;;;5.02;82.59
55538;BME280;41383;51.418;7.286;2023-02-24T14:30:31;98692.97;;;4.72;84.44
55538;BME280;41383;51.418;7.286;2023-02-24T14:32:58;98698.50;;;4.83;84.28
55538;BME280;41383;51.418;7.286;2023-02-24T14:35:35;98697.81;;;4.70;83.83
55538;BME280;41383;51.418;7.286;2023-02-24T14:38:01;98700.16;;;4.84;83.96
55538;BME280;41383;51.418;7.286;2023-02-24T14:40:27;98680.88;;;5.02;83.56
55538;BME280;41383;51.418;7.286;2023-02-24T14:42:54;98686.59;;;5.06;83.66
55538;BME280;41383;51.418;7.286;2023-02-24T14:45:24;98675.66;;;5.23;83.39
55538;BME280;41383;51.418;7.286;2023-02-24T14:47:51;98669.03;;;5.09;83.32
55538;BME280;41383;51.418;7.286;2023-02-24T14:50:19;98677.94;;;5.04;nan
55538;BME280;41383;51.418;7.286;2023-02-24T14:52:52;98679.13;;;5.19;83.58
55538;BME280;41383;51.418;7.286;2023-02-24T14:55:28;98682.75;;;5.30;82.61
55538;BME280;41383;51.418;7.286;2023-02-24T15:00:36;98671.38;;;5.28;83.11
55538;BME280;41383;51.418;7.286;2023-02-24T15:03:11;98677.88;;;5.27;83.55
55538;BME280;41383;51.418;7.286;2023-02-24T15:05:43;98666.31;;;5.04;84.84
55538;BME280;41383;51.418;7.286;2023-02-24T15:10:53;98658.19;;;5.04;85.15
55538;BME280;41383;51.418;7.286;2023-02-24T15:13:28;98649.63;;;5.12;84.68
55538;BME280;41383;51.418;7.286;2023-02-24T15:16:24;98641.25;;;5.13;85.23
55538;BME280;41383;51.418;7.286;2023-02-24T15:18:50;98640.59;;;5.29;85.31
55538;BME280;41383;51.418;7.286;2023-02-24T15:21:19;98630.34;;;5.31;85.35
55538;BME280;41383;51.418;7.286;2023-02-24T15:23:45;98620.03;;;5.28;85.74
55538;BME280;41383;51.418;7.286;2023-02-24T15:26:33;98638.00;;;5.44;85.45
55538;BME280;41383;51.418;7.286;2023-02-24T15:29:12;98622.16;;;5.20;86.48
55538;BME280;41383;51.418;7.286;2023-02-24T15:31:38;98616.69;;;5.15;86.73
55538;BME280;41383;51.418;7.286;2023-02-24T15:34:03;98616.88;;;5.36;86.47
55538;BME280;41383;51.418;7.286;2023-02-24T15:36:33;98615.75;;;5.32;85.86